createdAt,value
2023-03-27T03:28:30.060Z,100137.03
2023-03-27T03:30:59.255Z,100143.56
2023-03-27T03:33:28.115Z,100142.31
2023-03-27T03:35:54.683Z,100148.03
2023-03-27T03:38:28.101Z,100151.69
2023-03-27T03:40:55.500Z,100153.75
2023-03-27T03:43:23.116Z,100149.63
2023-03-27T03:45:50.037Z,100162.06
2023-03-27T03:48:17.123Z,100175.38
2023-03-27T03:50:44.647Z,100176.38
2023-03-27T03:53:11.648Z,100177.44
2023-03-27T03:55:38.160Z,100181.09
2023-03-27T03:58:05.057Z,100188.22
2023-03-27T04:00:34.652Z,100189.88
2023-03-27T04:03:02.019Z,100189.28
2023-03-27T04:05:28.540Z,100191.09
2023-03-27T04:07:55.035Z,100204.38
2023-03-27T04:10:21.559Z,100205.44
2023-03-27T04:12:48.639Z,100206.44
2023-03-27T04:15:16.640Z,100210.28
2023-03-27T04:17:43.609Z,100206.78
2023-03-27T04:20:10.939Z,100209.44
2023-03-27T04:22:38.125Z,100210.50
2023-03-27T04:25:06.136Z,100214.16
2023-03-27T04:27:43.440Z,100214.16
2023-03-27T04:30:11.011Z,100231.13
2023-03-27T04:32:37.580Z,100228.47
2023-03-27T04:35:04.194Z,100229.31
2023-03-27T04:37:30.679Z,100224.78
2023-03-27T04:39:58.088Z,100230.13
2023-03-27T04:42:24.532Z,100230.13
2023-03-27T04:44:52.610Z,100235.44
2023-03-27T04:47:20.559Z,100245.06
2023-03-27T04:49:47.108Z,100235.44
2023-03-27T04:52:14.478Z,100244.03
2023-03-27T04:54:42.136Z,100247.75
2023-03-27T04:57:10.119Z,100253.06
2023-03-27T04:59:37.189Z,100252.22
2023-03-27T05:02:04.652Z,100256.72
2023-03-27T05:04:32.167Z,100267.38
2023-03-27T05:06:59.361Z,100267.38
2023-03-27T05:09:25.966Z,100266.56
2023-03-27T05:11:52.576Z,100276.34
2023-03-27T05:14:19.974Z,100273.88
2023-03-27T05:16:46.800Z,100273.69
2023-03-27T05:19:13.374Z,100281.69
2023-03-27T05:21:39.954Z,100285.34
2023-03-27T05:24:06.800Z,100285.34
2023-03-27T05:26:33.324Z,100289.03
2023-03-27T05:29:00.407Z,100299.69
2023-03-27T05:31:27.470Z,100307.47
2023-03-27T05:33:55.013Z,100301.31
2023-03-27T05:36:22.378Z,100311.94
2023-03-27T05:38:48.884Z,100300.31
2023-03-27T05:41:18.570Z,100311.94
2023-03-27T05:43:45.734Z,100304.63
2023-03-27T05:46:12.691Z,100323.06
2023-03-27T05:48:39.335Z,100313.97
2023-03-27T05:51:06.284Z,100314.84
2023-03-27T05:53:32.804Z,100314.75
2023-03-27T05:56:02.675Z,100323.72
2023-03-27T05:58:30.089Z,100323.59
2023-03-27T06:00:56.698Z,100326.06
2023-03-27T06:03:24.920Z,100325.19
2023-03-27T06:05:52.560Z,100335.09
2023-03-27T06:08:19.515Z,100338.00
2023-03-27T06:10:46.098Z,100337.59
2023-03-27T06:13:13.830Z,100341.47
2023-03-27T06:15:43.355Z,100348.06
2023-03-27T06:18:11.201Z,100348.63
2023-03-27T06:20:38.348Z,100351.50
2023-03-27T06:23:06.602Z,100357.66
2023-03-27T06:25:34.732Z,100358.50
2023-03-27T06:28:01.931Z,100364.84
2023-03-27T06:30:29.516Z,100364.84
2023-03-27T06:32:59.753Z,100367.72
2023-03-27T06:35:27.945Z,100373.25
2023-03-27T06:37:55.978Z,100375.28
2023-03-27T06:40:24.379Z,100385.53
2023-03-27T06:43:01.154Z,100383.91
2023-03-27T06:45:29.980Z,100379.78
2023-03-27T06:48:15.031Z,100389.16
2023-03-27T06:50:44.412Z,100396.94
2023-03-27T06:53:23.545Z,100402.28
2023-03-27T06:55:53.661Z,100397.75
2023-03-27T06:58:20.205Z,100403.09
2023-03-27T07:00:49.027Z,100412.56
2023-03-27T07:03:15.836Z,100407.84
2023-03-27T07:05:42.937Z,100403.13
2023-03-27T07:08:22.514Z,100409.75
2023-03-27T07:11:03.884Z,100415.72
2023-03-27T07:13:37.834Z,100422.50
2023-03-27T07:16:04.803Z,100423.31
2023-03-27T07:18:31.531Z,100423.78
2023-03-27T07:20:58.226Z,100435.06
2023-03-27T07:23:24.974Z,100430.56
2023-03-27T07:25:52.366Z,100434.88
2023-03-27T07:28:19.570Z,100435.72
2023-03-27T07:30:46.363Z,100438.19
2023-03-27T07:33:13.373Z,100439.84
2023-03-27T07:35:46.941Z,100443.13
2023-03-27T07:38:14.476Z,100443.75
2023-03-27T07:40:42.488Z,100449.72
2023-03-27T07:43:09.175Z,100449.53
2023-03-27T07:45:36.037Z,100452.63
2023-03-27T07:48:14.407Z,100457.59
2023-03-27T07:50:40.875Z,100459.50
2023-03-27T07:53:07.429Z,100455.66
2023-03-27T07:55:36.974Z,100451.00
2023-03-27T07:58:04.073Z,100453.50
2023-03-27T08:00:31.617Z,100451.09
2023-03-27T08:03:06.105Z,100453.84
2023-03-27T08:05:33.018Z,100460.47
2023-03-27T08:07:59.684Z,100463.41
2023-03-27T08:10:26.291Z,100459.31
2023-03-27T08:12:52.809Z,100464.09
2023-03-27T08:15:19.834Z,100468.03
2023-03-27T08:17:46.438Z,100474.22
2023-03-27T08:20:16.670Z,100469.69
2023-03-27T08:22:43.303Z,100475.91
2023-03-27T08:25:12.793Z,100472.44
2023-03-27T08:27:39.433Z,100476.94
2023-03-27T08:30:06.354Z,100470.16
2023-03-27T08:32:33.122Z,100461.53
2023-03-27T08:35:00.157Z,100457.19
2023-03-27T08:37:27.427Z,100468.13
2023-03-27T08:39:58.915Z,100474.28
2023-03-27T08:42:33.085Z,100476.59
2023-03-27T08:45:03.879Z,100480.50
2023-03-27T08:47:42.921Z,100487.47
2023-03-27T08:50:17.984Z,100491.84
2023-03-27T08:52:45.648Z,100490.81
2023-03-27T08:55:18.857Z,100492.88
2023-03-27T08:57:46.715Z,100500.72
2023-03-27T09:00:21.426Z,100505.66
2023-03-27T09:02:59.031Z,100501.31
2023-03-27T09:05:36.084Z,100496.16
2023-03-27T09:08:13.552Z,100508.97
2023-03-27T09:10:51.265Z,100513.91
2023-03-27T09:13:36.820Z,100507.31
2023-03-27T09:16:04.992Z,100514.69
2023-03-27T09:18:36.808Z,100504.38
2023-03-27T09:21:17.907Z,100507.69
2023-03-27T09:23:46.418Z,100501.69
2023-03-27T09:26:14.627Z,100504.53
2023-03-27T09:28:51.056Z,100499.94
2023-03-27T09:31:23.526Z,100508.56
2023-03-27T09:33:50.415Z,100513.69
2023-03-27T09:36:17.493Z,100505.41
2023-03-27T09:38:46.653Z,100518.38
2023-03-27T09:41:15.593Z,100508.22
2023-03-27T09:43:42.246Z,100528.41
2023-03-27T09:46:10.168Z,100521.78
2023-03-27T09:48:40.142Z,100520.94
2023-03-27T09:51:26.551Z,100515.13
2023-03-27T09:53:57.812Z,100528.31
2023-03-27T09:56:24.247Z,100519.69
2023-03-27T09:58:50.883Z,100522.56
2023-03-27T10:01:21.550Z,100513.47
2023-03-27T10:03:53.229Z,100513.47
2023-03-27T10:06:30.413Z,100525.00
2023-03-27T10:09:01.246Z,100518.34
2023-03-27T10:11:31.664Z,100531.50
2023-03-27T10:14:00.061Z,100522.81
2023-03-27T10:16:28.007Z,100525.50
2023-03-27T10:18:56.791Z,100521.97
2023-03-27T10:21:26.354Z,100524.88
2023-03-27T10:23:58.970Z,100526.31
2023-03-27T10:26:26.797Z,100521.53
2023-03-27T10:28:58.790Z,100530.19
2023-03-27T10:31:28.431Z,100529.56
2023-03-27T10:33:56.781Z,100532.50
2023-03-27T10:36:24.623Z,100532.13
2023-03-27T10:39:00.947Z,100529.00
2023-03-27T10:41:29.185Z,100522.31
2023-03-27T10:43:58.498Z,100519.34
2023-03-27T10:46:27.052Z,100521.34
2023-03-27T10:49:02.573Z,100530.13
2023-03-27T10:51:46.524Z,100527.25
2023-03-27T10:54:34.757Z,100518.41
2023-03-27T10:57:10.176Z,100529.59
2023-03-27T10:59:44.358Z,100528.06
2023-03-27T11:02:31.219Z,100532.19
2023-03-27T11:05:27.924Z,100548.09
2023-03-27T11:08:03.137Z,100577.38
2023-03-27T11:10:42.926Z,100580.19
2023-03-27T11:13:12.694Z,100581.19
2023-03-27T11:15:51.011Z,100571.41
2023-03-27T11:18:21.777Z,100565.59
2023-03-27T11:20:53.950Z,100564.84
2023-03-27T11:23:28.635Z,100568.25
2023-03-27T11:25:59.104Z,100573.00
2023-03-27T11:28:43.549Z,100570.94
2023-03-27T11:31:14.451Z,100582.72
2023-03-27T11:33:45.780Z,100611.66
2023-03-27T11:36:31.168Z,100601.59
2023-03-27T11:39:21.364Z,100602.69
2023-03-27T11:41:51.492Z,100602.53
2023-03-27T11:44:17.956Z,100612.31
2023-03-27T11:46:44.478Z,100602.84
2023-03-27T11:49:11.009Z,100616.91
2023-03-27T11:51:55.132Z,100623.94
2023-03-27T11:54:21.564Z,100625.78
2023-03-27T11:56:48.085Z,100639.22
2023-03-27T11:59:41.773Z,100644.56
2023-03-27T12:02:27.885Z,100643.34
2023-03-27T12:05:17.486Z,100645.81
2023-03-27T12:08:02.772Z,100657.38
2023-03-27T12:10:32.064Z,100655.72
2023-03-27T12:13:22.731Z,100665.84
2023-03-27T12:15:51.995Z,100648.28
2023-03-27T12:18:36.369Z,100645.78
2023-03-27T12:21:21.436Z,100629.09
2023-03-27T12:24:12.589Z,100633.81
2023-03-27T12:26:45.679Z,100630.72
2023-03-27T12:29:32.396Z,100638.78
2023-03-27T12:32:11.170Z,100632.59
2023-03-27T12:34:50.217Z,100640.03
2023-03-27T12:37:18.253Z,100634.69
2023-03-27T12:39:53.684Z,100631.78
2023-03-27T12:42:44.155Z,100623.09
2023-03-27T12:45:15.672Z,100625.97
2023-03-27T12:47:50.610Z,100625.06
2023-03-27T12:50:26.451Z,100622.31
2023-03-27T12:52:53.441Z,100625.16
2023-03-27T12:55:19.934Z,100622.56
2023-03-27T12:57:47.179Z,100612.78
2023-03-27T13:00:21.646Z,100618.88
2023-03-27T13:02:51.298Z,100617.13
2023-03-27T13:05:27.843Z,100627.19
2023-03-27T13:07:57.594Z,100636.63
2023-03-27T13:10:29.973Z,100644.19
2023-03-27T13:13:05.864Z,100639.81
2023-03-27T13:15:51.433Z,100650.72
2023-03-27T13:18:27.512Z,100646.19
2023-03-27T13:20:53.925Z,100658.56
2023-03-27T13:23:41.769Z,100653.66
2023-03-27T13:26:21.419Z,100636.75
2023-03-27T13:28:49.237Z,100661.19
2023-03-27T13:31:34.651Z,100663.34
2023-03-27T13:34:26.779Z,100643.59
2023-03-27T13:37:11.406Z,100663.91
2023-03-27T13:39:46.039Z,100661.09
2023-03-27T13:42:15.723Z,100664.00
2023-03-27T13:45:01.384Z,100664.47
2023-03-27T13:47:28.576Z,100660.06
2023-03-27T13:50:14.267Z,100666.03
2023-03-27T13:52:57.157Z,100660.34
2023-03-27T13:55:42.341Z,100659.22
2023-03-27T13:58:27.497Z,100660.78
2023-03-27T14:01:12.926Z,100662.38
2023-03-27T14:03:45.342Z,100663.59
2023-03-27T14:06:30.654Z,100656.28
2023-03-27T14:09:00.228Z,100654.78
2023-03-27T14:11:32.989Z,100659.72
2023-03-27T14:14:02.523Z,100665.31
2023-03-27T14:16:29.054Z,100676.69
2023-03-27T14:19:12.355Z,100673.78
2023-03-27T14:21:58.808Z,100682.53
2023-03-27T14:24:28.353Z,100692.47
2023-03-27T14:26:55.689Z,100696.91
2023-03-27T14:29:22.288Z,100692.66
2023-03-27T14:31:49.445Z,100703.09
2023-03-27T14:34:25.056Z,100701.66
2023-03-27T14:36:52.424Z,100705.25
2023-03-27T14:39:20.741Z,100704.03
2023-03-27T14:41:53.229Z,100758.19
2023-03-27T14:44:20.458Z,100780.59
2023-03-27T14:46:50.652Z,100767.78
2023-03-27T14:49:24.784Z,100760.81
2023-03-27T14:51:53.635Z,100759.22
2023-03-27T14:54:27.002Z,100764.03
2023-03-27T14:56:54.584Z,100762.59
2023-03-27T14:59:22.863Z,100770.44
2023-03-27T15:01:49.973Z,100764.84
2023-03-27T15:04:16.757Z,100750.16
2023-03-27T15:06:43.351Z,100753.19
2023-03-27T15:09:19.358Z,100749.66
2023-03-27T15:11:53.417Z,100741.72
2023-03-27T15:14:25.600Z,100749.81
2023-03-27T15:17:01.070Z,100751.41
2023-03-27T15:19:30.209Z,100757.72
2023-03-27T15:22:01.352Z,100757.41
2023-03-27T15:24:34.380Z,100763.13
2023-03-27T15:27:01.262Z,100769.25
2023-03-27T15:29:49.694Z,100767.38
2023-03-27T15:32:19.023Z,100774.94
2023-03-27T15:34:49.164Z,100766.31
2023-03-27T15:37:25.721Z,100770.81
2023-03-27T15:40:13.573Z,100770.81
2023-03-27T15:42:47.953Z,100767.69
2023-03-27T15:45:16.932Z,100769.53
2023-03-27T15:47:43.722Z,100767.88
2023-03-27T15:50:17.032Z,100766.47
2023-03-27T15:52:50.529Z,100767.97
2023-03-27T15:55:34.022Z,100766.44
2023-03-27T15:58:12.927Z,100766.13
2023-03-27T16:00:44.458Z,100765.81
2023-03-27T16:03:15.790Z,100764.25
2023-03-27T16:05:43.028Z,100768.03
2023-03-27T16:08:10.326Z,100763.50
2023-03-27T16:10:36.814Z,100767.91
2023-03-27T16:13:04.237Z,100763.59
2023-03-27T16:15:32.673Z,100765.91
2023-03-27T16:18:01.390Z,100763.63
2023-03-27T16:20:28.241Z,100760.78
2023-03-27T16:23:00.759Z,100764.25
2023-03-27T16:25:27.277Z,100762.41
2023-03-27T16:27:55.013Z,100767.97
2023-03-27T16:30:21.506Z,100765.06
2023-03-27T16:32:48.018Z,100767.75
2023-03-27T16:35:14.649Z,100770.63
2023-03-27T16:37:41.349Z,100769.81
2023-03-27T16:40:08.543Z,100771.47
2023-03-27T16:42:35.105Z,100770.84
2023-03-27T16:45:03.227Z,100770.84
2023-03-27T16:47:29.712Z,100770.19
2023-03-27T16:50:10.272Z,100778.06
2023-03-27T16:52:37.678Z,100777.63
